• Join FlightAware (Why Join?)
  • Login
  • US Flag 
02:16PM EDT


 

Airport Tracker/Info


-or-


 

Live Flight TrackerFlight Track Log ✈ N479SA ✈ 08-Jul-2013 ✈ KISQ - KLAN

Flight Track Log - Related Links

Times and Time Zones

All times are in EDT time to prevent confusion due to time zone crossing. See the N479SA flight status page for this flight to view local times or setup timezone preferences in your user account.

Time Position Orientation Groundspeed Altitude Reporting Facility
EDT Latitude Longitude Course Direction KTS MPH feet Rate Location/Type
11:17AM 45.9317 -86.0372 151° Southeast 108 124 5,500  Level Minneapolis Center
11:18AM 45.8875 -86.0417 184° South 123 142 7,000 1,200 Climbing Minneapolis Center
11:19AM 45.8492 -86.0408 179° South 131 151 8,100 1,140 Climbing Minneapolis Center
11:20AM 45.8039 -86.0406 180° South 134 154 9,400 1,080 Climbing Minneapolis Center
11:21AM 45.8691 -85.7123 106° East  Level FlightAware Approximate
11:21AM 45.7647 -86.0411 181° South 137 158 10,400  Level Minneapolis Center
11:22AM 45.7233 -86.0403 179° South 143 165 11,100 300 Climbing Minneapolis Center
11:23AM 45.6714 -86.0403 180° South 164 189 11,100  Level Minneapolis Center
11:24AM 45.6158 -86.0411 181° South 186 214 11,100  Level Minneapolis Center
11:25AM 45.5608 -86.0408 180° South 194 223 11,100  Level Minneapolis Center
11:26AM 45.5067 -86.0403 180° South 196 226 11,100  Level Minneapolis Center
11:27AM 45.4414 -86.0383 179° South 195 224 11,100 -60 Level Minneapolis Center
11:28AM 45.3872 -86.0358 178° South 195 224 11,000 -60 Descending Minneapolis Center
11:29AM 45.3339 -86.0375 181° South 194 223 11,000  Level Minneapolis Center
11:30AM 45.2789 -86.0375 180° South 195 224 11,000  Level Minneapolis Center
11:31AM 45.2244 -86.0367 179° South 195 224 11,000  Level Minneapolis Center
11:32AM 45.1694 -86.0364 180° South 198 228 11,000  Level Minneapolis Center
11:33AM 45.1158 -86.0358 180° South 194 223 11,000  Level Minneapolis Center
11:34AM 45.0525 -86.0367 181° South 191 220 11,000  Level Minneapolis Center
11:35AM 44.9986 -86.0367 180° South 194 223 11,000  Level Minneapolis Center
11:36AM 44.9369 -86.0356 179° South 188 216 11,000  Level Minneapolis Center
11:37AM 44.8847 -86.0356 180° South 188 216 11,000  Level Minneapolis Center
11:38AM 44.8328 -86.0353 180° South 186 214 11,000  Level Minneapolis Center
11:40AM 44.7839 -86.0356 180° South 186 214 11,000  Level Minneapolis Center
11:41AM 44.7258 -86.0353 180° South 184 212 11,000  Level Minneapolis Center
11:42AM 44.6753 -86.0356 180° South 182 209 11,000  Level Minneapolis Center
11:43AM 44.6231 -86.0356 180° South 187 215 11,000  Level Minneapolis Center
11:44AM 44.5728 -86.0361 180° South 182 209 11,000  Level Minneapolis Center
11:45AM 44.5100 -86.0353 179° South 187 215 11,000  Level Minneapolis Center
11:46AM 44.4594 -86.0361 181° South 183 211 11,000  Level Minneapolis Center
11:47AM 44.4097 -86.0344 179° South 180 207 11,000  Level Minneapolis Center
11:48AM 44.3608 -86.0361 181° South 178 205 11,000  Level Minneapolis Center
11:49AM 44.3186 -86.0000 149° Southeast 183 211 11,000  Level Minneapolis Center
11:50AM 44.2786 -85.9558 142° Southeast 184 212 11,000  Level Minneapolis Center
11:51AM 44.2269 -85.9064 146° Southeast 188 216 11,000  Level Minneapolis Center
11:52AM 44.1836 -85.8669 147° Southeast 187 215 11,000  Level Minneapolis Center
11:53AM 44.1411 -85.8236 144° Southeast 189 217 11,000  Level Minneapolis Center
11:54AM 44.0972 -85.7856 148° Southeast 187 215 11,000  Level Minneapolis Center
11:55AM 44.0511 -85.7417 146° Southeast 187 215 11,000  Level Minneapolis Center
11:56AM 44.0092 -85.7031 146° Southeast 184 212 11,000  Level Minneapolis Center
11:57AM 43.9667 -85.6631 146° Southeast 183 211 11,000  Level Minneapolis Center
11:58AM 43.9247 -85.6247 147° Southeast 183 211 11,000  Level Minneapolis Center
11:59AM 43.8825 -85.5853 146° Southeast 183 211 11,000  Level Minneapolis Center
12:00PM 43.8328 -85.5386 146° Southeast 181 208 11,000  Level Minneapolis Center
12:01PM 43.7903 -85.4994 146° Southeast 182 209 11,100  Climbing Minneapolis Center
12:02PM 43.7481 -85.4614 147° Southeast 183 211 11,100  Level Minneapolis Center
12:03PM 43.7061 -85.4222 146° Southeast 181 208 11,100 -60 Level Minneapolis Center
12:04PM 43.6625 -85.3814 146° Southeast 187 215 11,000 -60 Descending Minneapolis Center
12:05PM 43.6189 -85.3406 146° Southeast 189 217 11,000 -120 Level Minneapolis Center
12:06PM 43.5750 -85.3022 148° Southeast 187 215 10,800 -480 Descending Minneapolis Center
12:07PM 43.5469 -85.2758 146° Southeast 197 227 10,300 -1,020 Descending Chicago Center